Aberdeen Regional Airport
KABR : rendu visible

Aérodrome :











RETROUVEZ-NOUS SUR...

 
LOGIN :

S'inscrire | Disclaimer

   EN    FR    IT 

 









Légende :    VFR   VFR Marginal   IFR   IFR Intensif   IFR Très Intensif
Visi : 
Plafond : 
>= 8 km
>= 3000ft
5 à 8 km
1000 à 3000 ft
1500m à 5 km
500 à 1000 ft
800 à 1500m
200 à 500 ft
< 800m
< 200 ft
Symboles :   Orages  Brouillard  Fortes neiges  Fortes précipitations  Vent > 20 kt






- Altitude de l'aérodrome : 1302 ft
- Code IATA : ABR


KABR - Aberdeen Regional

DERNIER METAR :
  • 190153Z AUTO 31017G24KT 10SM CLR M19/M24 A3037 RMK AO2 PK WND 32028/0103 SLP322 T11941244 $

METARs EXPIRÉS :
  • 190053Z AUTO 32019G29KT 10SM CLR M19/M24 A3034 RMK AO2 PK WND 31030/0022 SLP312 T11941244 $
  • 182353Z AUTO 31022G28KT 10SM CLR M19/M24 A3032 RMK AO2 PK WND 30034/2304 UPE46 SLP304 P0000 60000 T11941244 11178 21194 51022 $

TAF KABR
Valide du 19 à 00h jusqu'au 20 à 00h UTC


182322Z 1900/1924 31022G33KT 6SM BLSN SKC
FM190300 31017G24KT P6SM FEW200
FM190700 31015G21KT P6SM FEW090
FM190900 31012KT P6SM FEW090
FM192200 31006KT P6SM FEW250



MET'MAP, la Météo Aéronautique d'un coup d'oeil ! - Copyright ORBIFLY Décembre 2007 - Disclaimer

ORBIFLY MET'MAP TEAM :

Programmation & Développement : Alexandra Zaïnal
Sur une idée originale de : Baudouin d'Aumeries
Assistance à la programmation : Marc-Olivier Méhu
Soutien technique & logistique : Manuel Goepfert

Contact : metmap@orbifly.com




SOURCES & CREDITS :

   NOAA       Earth
Advisory